Annette Island, AK

3:55 AM AKDT on September 30, 2014 (GMT -0800)
Annette Island | Change Station
CLOSE
Current Station
Airport
Location: Annette Island,
Elevation: 112 ft
Nearby Weather Stations

Elev 112 ft 55.04 °N, 131.57 °W | Updated 6 minutes ago

Overcast
Overcast
52 °F
Feels Like 52 °F
N
4
Wind Variable Wind from SE

Today
High -- | Low -- °F
--% Chance of Precip.
Yesterday
High -- | Low -- °F
Precip. -- in
6:47 AM 6:24 PM
Waxing Crescent, 36% visible
Pressure 29.91 in
Visibility 10.0 miles
Clouds Scattered Clouds 900 ft
Overcast 2100 ft
Dew Point 52 °F
Humidity 100%
Rainfall 0.00 in
Snow Depth 1 in , 1 in , 1 in
UV 0 out of 12
Pollen Not available.
Air Quality Not available.
Flu Activity Not available.
SPECI PANT 301149Z 14003KT 10SM SCT009 OVC021 11/11 A2991 RMK AO2

More Conditions Fewer Conditions

Pressure 29.91 in
Visibility 10.0 miles
Clouds Scattered Clouds 900 ft
Overcast 2100 ft
Dew Point 52 °F
Humidity 100%
Rainfall 0.00 in
Snow Depth 1 in , 1 in , 1 in
UV 0 out of 12
Pollen Not available.
Air Quality Not available.
Flu Activity Not available.
SPECI PANT 301149Z 14003KT 10SM SCT009 OVC021 11/11 A2991 RMK AO2

More Conditions Fewer Conditions

10-Day Weather Forecast

Almanac

Astronomy

Sep. 30, 2014 Rise Set
Actual Time 6:47 AM AKDT 6:24 PM AKDT
Civil Twilight 6:11 AM AKDT 7:00 PM AKDT
Nautical Twilight 5:28 AM AKDT 7:42 PM AKDT
Astronomical Twilight 4:44 AM AKDT 8:26 PM AKDT
Moon 1:47 PM AKDT 10:16 PM AKDT
Length of Visible Light 12h 49m
Length of Day
11h 36m
Tomorrow will be 4m 27s shorter.
Waxing Crescent, 36% of the Moon is Illuminated
Today
Waxing Crescent
Oct 1
First Quarter
Oct 8
Full
Oct 15
Last Quarter
Oct 23
New

Today's Extremes

State Highs State Lows

Community

WunderPhotos

Upload Photos

1,757,618 photos uploaded!

Nearby

Snow Depth

Station Depth Elevation
Mt. Ryan 1 in 2800 ft
Pargon Creek 1 in 300 ft
MF Bradley River 1 in 2300 ft
Mcneil Canyon 1 in 1320 ft
Gobblers Knob 4 in 2030 ft

Earthquake Activity

City Distance Mag. Time & Date
No recent earthquake activity has been reported nearby.
Minimum magnitude displayed is 2.5.

Coastal Water Temperatures

Place Temperature
No Stations Reporting

Nearby Weather Stations